Time;durP1;ratioP1;P1;durP2;ratioP2;P2;SDS_P1;SDS_P2;PMS_P1;PMS_P2;Temp;Humidity;BMP_temperature;BMP_pressure;BME280_temperature;BME280_humidity;BME280_pressure;Samples;Min_cycle;Max_cycle;Signal;HPM_P1;HPM_P2
2023/05/20 00:00:03;;;;;;;4.38;2.40;;;;;;;14.72;65.42;99647.75;407119;23;18252;-72
2023/05/20 00:00:15;;;;;;;4.10;2.40;;;;;;;14.68;65.42;99643.59;411243;23;4513;-72
2023/05/20 00:00:27;;;;;;;2.83;2.47;;;;;;;14.70;65.51;99652.19;407413;23;18175;-72
2023/05/20 00:00:39;;;;;;;4.32;2.67;;;;;;;14.69;65.47;99647.03;410864;23;4606;-71
2023/05/20 00:00:52;;;;;;;4.93;2.60;;;;;;;14.69;65.36;99652.28;410432;23;5192;-72
2023/05/20 00:01:04;;;;;;;5.03;2.60;;;;;;;14.71;65.40;99656.53;410149;23;17934;-71
2023/05/20 00:01:16;;;;;;;4.03;2.60;;;;;;;14.73;65.34;99652.06;415131;23;5243;-72
2023/05/20 00:01:28;;;;;;;4.03;2.78;;;;;;;14.73;65.38;99646.84;410647;23;18250;-72
2023/05/20 00:01:40;;;;;;;4.35;3.00;;;;;;;14.73;65.52;99646.84;413008;23;4481;-72
2023/05/20 00:01:52;;;;;;;5.20;3.10;;;;;;;14.74;65.49;99650.28;409708;23;5783;-72
2023/05/20 00:02:04;;;;;;;5.53;3.03;;;;;;;14.74;65.68;99645.88;412524;23;4422;-72
2023/05/20 00:02:16;;;;;;;5.78;2.90;;;;;;;14.74;65.70;99645.88;412390;23;4612;-71
2023/05/20 00:02:28;;;;;;;6.43;2.80;;;;;;;14.72;65.70;99645.13;409496;23;18102;-72
2023/05/20 00:02:40;;;;;;;6.35;2.70;;;;;;;14.71;65.57;99643.44;413276;23;5131;-72
2023/05/20 00:02:52;;;;;;;5.30;2.70;;;;;;;14.70;65.62;99646.97;409014;23;17803;-72
2023/05/20 00:03:05;;;;;;;4.80;2.70;;;;;;;14.69;65.71;99647.91;412784;23;4472;-71
2023/05/20 00:03:21;;;;;;;3.80;2.70;;;;;;;14.69;65.54;99647.91;409768;23;6686;-72
2023/05/20 00:03:33;;;;;;;4.57;2.60;;;;;;;14.68;65.81;99645.34;408982;23;18483;-72
2023/05/20 00:03:46;;;;;;;4.50;2.60;;;;;;;14.68;65.56;99646.19;413021;23;5200;-72
2023/05/20 00:03:58;;;;;;;3.60;2.55;;;;;;;14.69;65.53;99641.81;410153;23;18161;-72
2023/05/20 00:04:10;;;;;;;3.03;2.38;;;;;;;14.68;65.29;99640.97;412501;23;4558;-72
2023/05/20 00:04:23;;;;;;;3.53;2.42;;;;;;;14.69;65.29;99645.28;410055;23;18100;-72
2023/05/20 00:04:35;;;;;;;4.57;2.50;;;;;;;14.69;65.28;99641.81;413007;23;5404;-72
2023/05/20 00:04:47;;;;;;;4.50;2.47;;;;;;;14.69;65.36;99647.91;409947;23;8143;-72
2023/05/20 00:05:00;;;;;;;3.92;2.40;;;;;;;14.70;65.30;99646.13;413646;23;5199;-72
2023/05/20 00:05:14;;;;;;;3.42;2.30;;;;;;;14.70;65.24;99652.19;403367;23;18914;-72
2023/05/20 00:05:27;;;;;;;3.73;2.40;;;;;;;14.70;64.93;99648.75;412183;23;4600;-72
2023/05/20 00:05:40;;;;;;;4.25;2.45;;;;;;;14.70;65.23;99644.34;409636;23;18040;-72
2023/05/20 00:05:53;;;;;;;4.20;2.58;;;;;;;14.69;65.45;99645.28;409713;23;18037;-72
2023/05/20 00:06:06;;;;;;;3.53;2.63;;;;;;;14.69;65.36;99642.69;408586;23;5490;-72
2023/05/20 00:06:18;;;;;;;3.67;2.67;;;;;;;14.70;65.24;99644.34;408669;23;19156;-72
2023/05/20 00:06:31;;;;;;;4.13;2.70;;;;;;;14.69;65.25;99647.91;411227;23;4914;-72
2023/05/20 00:06:43;;;;;;;4.70;2.72;;;;;;;14.66;65.29;99645.44;406614;23;4739;-72
2023/05/20 00:06:55;;;;;;;4.43;2.70;;;;;;;14.67;65.28;99643.66;409254;23;4665;-72
2023/05/20 00:07:08;;;;;;;4.28;2.70;;;;;;;14.66;65.28;99642.81;410796;23;8318;-71
2023/05/20 00:07:20;;;;;;;4.25;2.65;;;;;;;14.66;65.14;99648.03;414165;23;5196;-72
2023/05/20 00:07:33;;;;;;;4.15;2.67;;;;;;;14.66;65.33;99642.81;411434;23;16237;-71
2023/05/20 00:07:46;;;;;;;4.43;2.67;;;;;;;14.67;65.33;99644.53;415186;23;5076;-72
2023/05/20 00:07:59;;;;;;;4.30;2.57;;;;;;;14.67;65.50;99643.66;402514;23;18815;-72
2023/05/20 00:08:11;;;;;;;3.63;2.45;;;;;;;14.67;65.44;99644.53;413157;23;18364;-72
2023/05/20 00:08:23;;;;;;;2.97;2.30;;;;;;;14.68;65.72;99646.19;403921;23;18404;-71
2023/05/20 00:08:35;;;;;;;4.15;2.35;;;;;;;14.66;65.68;99648.03;414911;23;4555;-72
2023/05/20 00:08:47;;;;;;;4.35;2.45;;;;;;;14.65;65.76;99641.13;406885;23;7928;-72
2023/05/20 00:08:59;;;;;;;4.65;2.63;;;;;;;14.66;65.49;99649.81;414144;23;4969;-72
2023/05/20 00:09:11;;;;;;;3.50;2.65;;;;;;;14.64;65.26;99647.28;410206;23;4467;-72
2023/05/20 00:09:23;;;;;;;3.88;2.60;;;;;;;14.63;65.38;99642.97;403492;23;7913;-72
2023/05/20 00:09:38;;;;;;;3.90;2.70;;;;;;;14.65;65.44;99646.38;412866;23;5316;-72
2023/05/20 00:09:50;;;;;;;3.58;2.53;;;;;;;14.63;65.40;99645.59;409594;23;17749;-72
2023/05/20 00:10:02;;;;;;;4.68;2.47;;;;;;;14.64;65.49;99636.81;411628;23;9530;-72
2023/05/20 00:10:14;;;;;;;5.63;2.53;;;;;;;14.63;65.48;99645.59;413705;23;5388;-71
2023/05/20 00:10:26;;;;;;;4.63;2.75;;;;;;;14.62;65.79;99643.88;410683;23;5009;-72
2023/05/20 00:10:38;;;;;;;3.53;2.72;;;;;;;14.62;65.63;99646.50;411639;23;18003;-72
2023/05/20 00:10:50;;;;;;;3.28;2.70;;;;;;;14.63;65.67;99648.22;415265;23;4600;-72
2023/05/20 00:11:03;;;;;;;3.30;2.65;;;;;;;14.63;65.54;99648.22;410107;23;18346;-72
2023/05/20 00:11:15;;;;;;;3.22;2.70;;;;;;;14.63;65.61;99648.22;412441;23;17980;-72
2023/05/20 00:11:27;;;;;;;4.32;2.70;;;;;;;14.64;65.66;99649.88;412462;23;5279;-71
2023/05/20 00:11:42;;;;;;;4.63;2.70;;;;;;;14.65;65.67;99642.88;414245;23;17913;-71
2023/05/20 00:11:54;;;;;;;4.10;2.80;;;;;;;14.64;65.61;99643.81;410746;23;18284;-72
2023/05/20 00:12:06;;;;;;;3.83;2.70;;;;;;;14.62;65.70;99646.50;413016;23;4440;-72
2023/05/20 00:12:18;;;;;;;3.90;2.65;;;;;;;14.63;65.81;99648.22;409161;23;18172;-72
2023/05/20 00:12:30;;;;;;;3.70;2.60;;;;;;;14.60;65.86;99643.13;414840;23;4590;-71
2023/05/20 00:12:42;;;;;;;4.50;2.80;;;;;;;14.59;65.58;99641.44;413634;23;8324;-72
2023/05/20 00:12:54;;;;;;;3.88;2.60;;;;;;;14.60;65.48;99644.91;412863;23;17995;-72
2023/05/20 00:13:06;;;;;;;3.53;2.55;;;;;;;14.60;65.45;99643.13;414924;23;4467;-72
2023/05/20 00:13:18;;;;;;;3.40;2.50;;;;;;;14.61;65.34;99643.97;408310;23;18398;-72
2023/05/20 00:13:30;;;;;;;3.63;2.55;;;;;;;14.59;65.47;99641.44;412488;23;5167;-72
2023/05/20 00:13:42;;;;;;;3.42;2.50;;;;;;;14.60;65.55;99645.72;409517;23;17571;-72
2023/05/20 00:13:54;;;;;;;3.35;2.42;;;;;;;14.61;65.64;99644.81;412889;23;5088;-72
2023/05/20 00:14:06;;;;;;;3.13;2.50;;;;;;;14.60;65.70;99643.13;413130;23;4492;-72
2023/05/20 00:14:18;;;;;;;2.90;2.58;;;;;;;14.60;65.66;99642.28;409718;23;19111;-72
2023/05/20 00:14:30;;;;;;;2.97;2.50;;;;;;;14.60;65.64;99643.13;412522;23;4443;-71
2023/05/20 00:14:42;;;;;;;3.03;2.47;;;;;;;14.61;65.48;99643.97;409771;23;5769;-72
2023/05/20 00:14:54;;;;;;;2.80;2.30;;;;;;;14.60;65.56;99642.28;412546;23;5195;-72
2023/05/20 00:15:07;;;;;;;2.55;2.33;;;;;;;14.60;65.50;99640.50;413351;23;5197;-71
2023/05/20 00:15:19;;;;;;;3.00;2.50;;;;;;;14.61;65.43;99644.81;408991;23;18385;-72
2023/05/20 00:15:33;;;;;;;3.70;2.70;;;;;;;14.61;65.47;99644.81;414371;23;4480;-71
2023/05/20 00:15:45;;;;;;;3.38;2.58;;;;;;;14.61;65.45;99644.81;410717;23;18153;-72
2023/05/20 00:15:57;;;;;;;3.10;2.55;;;;;;;14.62;65.54;99643.88;411285;23;16135;-72
2023/05/20 00:16:10;;;;;;;3.25;2.35;;;;;;;14.61;65.64;99644.81;415023;23;4444;-72
2023/05/20 00:16:22;;;;;;;4.75;2.60;;;;;;;14.58;65.78;99642.34;414735;23;4570;-72
2023/05/20 00:16:34;;;;;;;5.72;2.70;;;;;;;14.56;66.02;99644.19;410616;23;17758;-72
2023/05/20 00:16:46;;;;;;;5.07;2.78;;;;;;;14.56;66.05;99641.56;414145;23;4465;-72
2023/05/20 00:16:58;;;;;;;4.57;2.80;;;;;;;14.55;66.15;99645.09;410509;23;19178;-72
2023/05/20 00:17:10;;;;;;;3.97;2.80;;;;;;;14.55;65.98;99645.94;413654;23;4642;-71
2023/05/20 00:17:22;;;;;;;4.75;2.67;;;;;;;14.55;65.96;99639.88;412611;23;4548;-72
2023/05/20 00:17:37;;;;;;;4.28;2.50;;;;;;;14.57;65.84;99640.66;410209;23;17933;-72
2023/05/20 00:17:52;;;;;;;3.08;2.50;;;;;;;14.57;65.77;99648.50;409556;23;5624;-72
2023/05/20 00:18:05;;;;;;;3.67;2.60;;;;;;;14.56;65.67;99641.56;408438;23;4949;-72
2023/05/20 00:18:17;;;;;;;3.40;2.60;;;;;;;14.55;65.83;99634.63;412408;23;5146;-72
2023/05/20 00:18:31;;;;;;;2.60;2.40;;;;;;;14.53;65.86;99636.47;411635;23;19058;-72
2023/05/20 00:18:45;;;;;;;2.67;2.40;;;;;;;14.53;65.88;99641.72;409099;23;5176;-72
2023/05/20 00:18:58;;;;;;;2.83;2.50;;;;;;;14.53;65.71;99644.31;410749;23;16021;-72
2023/05/20 00:19:10;;;;;;;3.30;2.40;;;;;;;14.52;65.64;99640.84;413213;23;18091;-72
2023/05/20 00:19:22;;;;;;;3.92;2.30;;;;;;;14.52;65.53;99640.00;405505;23;5150;-72
2023/05/20 00:19:35;;;;;;;3.20;2.20;;;;;;;14.52;65.66;99640.84;405856;23;18085;-72
2023/05/20 00:19:47;;;;;;;5.20;2.50;;;;;;;14.53;65.60;99637.31;410930;23;4896;-72
2023/05/20 00:19:59;;;;;;;4.60;2.50;;;;;;;14.54;65.97;99638.16;405163;23;18068;-72
2023/05/20 00:20:11;;;;;;;4.82;2.67;;;;;;;14.55;65.71;99638.09;411166;23;5339;-72
2023/05/20 00:20:24;;;;;;;2.85;2.50;;;;;;;14.56;65.75;99636.34;381127;23;18005;-72
2023/05/20 00:20:36;;;;;;;3.10;2.50;;;;;;;14.55;65.57;99638.09;410850;23;4587;-72
2023/05/20 00:20:48;;;;;;;3.08;2.50;;;;;;;14.55;65.52;99637.25;407742;23;18628;-72
2023/05/20 00:21:01;;;;;;;4.25;2.72;;;;;;;14.56;65.65;99644.19;410215;23;5277;-73
2023/05/20 00:21:13;;;;;;;4.90;2.60;;;;;;;14.54;65.39;99640.78;406986;23;17917;-71
2023/05/20 00:21:26;;;;;;;4.40;2.58;;;;;;;14.55;65.42;99642.47;401922;23;5255;-72
2023/05/20 00:21:38;;;;;;;3.63;2.53;;;;;;;14.55;65.59;99639.88;408771;23;18302;-72
2023/05/20 00:21:50;;;;;;;3.50;2.72;;;;;;;14.56;65.54;99641.56;412660;23;5181;-72
2023/05/20 00:22:02;;;;;;;3.15;2.50;;;;;;;14.55;65.58;99639.88;409363;23;8529;-72
2023/05/20 00:22:15;;;;;;;3.53;2.60;;;;;;;14.56;65.65;99641.56;409715;23;5467;-72
2023/05/20 00:22:28;;;;;;;3.58;2.60;;;;;;;14.55;65.70;99637.25;412935;23;4604;-72
2023/05/20 00:22:40;;;;;;;4.20;2.72;;;;;;;14.52;66.42;99645.22;406665;23;18212;-72
2023/05/20 00:22:53;;;;;;;4.10;2.70;;;;;;;14.49;66.15;99645.41;407481;23;12508;-72
2023/05/20 00:23:05;;;;;;;4.95;2.70;;;;;;;14.49;65.92;99640.16;408833;23;17319;-72
2023/05/20 00:23:17;;;;;;;5.13;2.60;;;;;;;14.47;66.05;99642.84;408237;23;9598;-72
2023/05/20 00:23:30;;;;;;;4.65;2.53;;;;;;;14.48;65.93;99641.06;409406;23;4730;-72
2023/05/20 00:23:42;;;;;;;3.92;2.53;;;;;;;14.47;65.90;99637.63;407821;23;8766;-72
2023/05/20 00:23:55;;;;;;;3.80;2.65;;;;;;;14.47;65.92;99647.25;410900;23;4420;-71
2023/05/20 00:24:07;;;;;;;3.42;2.60;;;;;;;14.49;65.88;99634.94;411500;23;5614;-72
2023/05/20 00:24:19;;;;;;;3.08;2.55;;;;;;;14.48;66.01;99643.69;407678;23;18056;-72
2023/05/20 00:24:31;;;;;;;3.50;2.55;;;;;;;14.47;66.10;99650.69;408158;23;5359;-72
2023/05/20 00:24:43;;;;;;;4.07;2.70;;;;;;;14.47;66.00;99642.00;404455;23;18007;-72
2023/05/20 00:24:55;;;;;;;4.28;2.90;;;;;;;14.45;66.05;99639.47;411212;23;4592;-72
2023/05/20 00:25:08;;;;;;;4.38;3.00;;;;;;;14.45;66.20;99643.84;403169;23;9037;-72
2023/05/20 00:25:21;;;;;;;3.88;2.83;;;;;;;14.46;65.99;99642.91;411146;23;4665;-72
2023/05/20 00:25:33;;;;;;;4.07;2.80;;;;;;;14.46;65.89;99642.91;397782;23;16323;-72
2023/05/20 00:25:46;;;;;;;4.00;2.80;;;;;;;14.45;66.11;99643.84;411200;23;5168;-71
2023/05/20 00:25:58;;;;;;;3.22;2.55;;;;;;;14.46;66.08;99645.53;409365;23;18344;-72
2023/05/20 00:26:13;;;;;;;3.30;2.63;;;;;;;14.47;66.11;99642.00;404576;23;4806;-72
2023/05/20 00:26:25;;;;;;;3.75;2.78;;;;;;;14.46;66.53;99645.53;408268;23;17882;-72
2023/05/20 00:26:37;;;;;;;3.85;2.80;;;;;;;14.43;66.80;99646.53;405265;23;4673;-72
2023/05/20 00:26:49;;;;;;;3.47;2.55;;;;;;;14.42;66.89;99639.59;412254;23;17481;-72
2023/05/20 00:27:01;;;;;;;3.30;2.47;;;;;;;14.43;66.53;99637.81;413034;23;4499;-71
2023/05/20 00:27:13;;;;;;;3.33;2.45;;;;;;;14.43;66.59;99653.50;409169;23;9499;-72
2023/05/20 00:27:25;;;;;;;3.35;2.53;;;;;;;14.42;66.57;99642.22;413014;23;4498;-73
2023/05/20 00:27:39;;;;;;;5.00;2.47;;;;;;;14.43;66.46;99645.66;404999;23;5145;-72
2023/05/20 00:27:51;;;;;;;5.05;2.40;;;;;;;14.43;66.20;99640.44;412824;23;4645;-72
2023/05/20 00:28:05;;;;;;;4.22;2.60;;;;;;;14.44;65.98;99642.16;409865;23;18274;-72
2023/05/20 00:28:18;;;;;;;3.28;2.60;;;;;;;14.43;66.09;99635.22;410249;23;4466;-72
2023/05/20 00:28:30;;;;;;;3.83;2.63;;;;;;;14.41;66.01;99640.53;412462;23;5690;-71
2023/05/20 00:28:42;;;;;;;4.00;2.70;;;;;;;14.39;65.79;99640.59;409349;23;9527;-72
2023/05/20 00:28:54;;;;;;;3.53;2.67;;;;;;;14.39;65.89;99645.84;409196;23;4503;-72
2023/05/20 00:29:06;;;;;;;3.20;2.70;;;;;;;14.38;66.10;99641.50;413834;23;4937;-72
2023/05/20 00:29:20;;;;;;;3.83;2.75;;;;;;;14.38;66.14;99638.91;407879;23;17966;-71
2023/05/20 00:29:32;;;;;;;4.03;2.80;;;;;;;14.38;66.01;99644.13;409353;23;5161;-72
2023/05/20 00:29:45;;;;;;;4.20;2.80;;;;;;;14.38;65.98;99640.66;409421;23;18285;-71
2023/05/20 00:29:57;;;;;;;4.60;2.80;;;;;;;14.36;66.24;99640.72;408723;23;4703;-72
2023/05/20 00:30:10;;;;;;;4.45;2.83;;;;;;;14.34;66.44;99639.97;410717;23;18152;-72
2023/05/20 00:30:22;;;;;;;3.05;2.65;;;;;;;14.34;66.73;99641.75;407818;23;4773;-72
2023/05/20 00:30:34;;;;;;;2.97;2.50;;;;;;;14.34;66.53;99637.34;404781;23;18004;-72
2023/05/20 00:30:46;;;;;;;3.15;2.40;;;;;;;14.35;66.63;99635.59;410509;23;4623;-72
2023/05/20 00:30:58;;;;;;;3.45;2.50;;;;;;;14.36;66.47;99640.72;406464;23;17934;-72
2023/05/20 00:31:10;;;;;;;3.03;2.58;;;;;;;14.37;66.62;99642.44;411905;23;4464;-71
2023/05/20 00:31:22;;;;;;;3.30;2.40;;;;;;;14.38;66.41;99638.06;412991;23;5255;-72
2023/05/20 00:31:34;;;;;;;3.65;2.58;;;;;;;14.36;66.57;99643.34;409025;23;17901;-72
2023/05/20 00:31:47;;;;;;;3.05;2.65;;;;;;;14.35;66.60;99639.06;412807;23;4538;-72
2023/05/20 00:31:59;;;;;;;4.32;2.92;;;;;;;14.33;66.91;99635.66;408813;23;18244;-72
2023/05/20 00:32:11;;;;;;;4.63;3.00;;;;;;;14.33;66.65;99638.28;414800;23;4449;-72
2023/05/20 00:32:23;;;;;;;3.63;3.00;;;;;;;14.33;66.58;99642.69;410567;23;18429;-72
2023/05/20 00:32:35;;;;;;;3.55;2.70;;;;;;;14.31;66.65;99637.50;413772;23;4436;-72
2023/05/20 00:32:48;;;;;;;6.78;2.75;;;;;;;14.31;66.47;99634.91;412624;23;4524;-72
2023/05/20 00:33:00;;;;;;;7.55;2.85;;;;;;;14.31;66.69;99637.50;414700;23;4438;-71
2023/05/20 00:33:12;;;;;;;7.35;2.85;;;;;;;14.33;66.52;99635.66;414834;23;4466;-72
2023/05/20 00:33:24;;;;;;;4.32;2.50;;;;;;;14.34;66.53;99634.72;411184;23;18099;-72
2023/05/20 00:33:36;;;;;;;4.07;2.50;;;;;;;14.34;66.49;99632.13;414710;23;6493;-71
2023/05/20 00:33:48;;;;;;;3.58;2.47;;;;;;;14.34;66.47;99637.34;410659;23;18047;-72
2023/05/20 00:34:00;;;;;;;4.35;2.67;;;;;;;14.33;66.66;99635.66;413556;23;4931;-72
2023/05/20 00:34:12;;;;;;;5.43;2.60;;;;;;;14.32;66.60;99638.34;412414;23;4435;-72
2023/05/20 00:34:24;;;;;;;4.50;2.40;;;;;;;14.32;66.72;99636.56;409873;23;19059;-72
2023/05/20 00:34:36;;;;;;;4.40;2.42;;;;;;;14.31;66.70;99637.50;413380;23;5300;-72
2023/05/20 00:34:57;;;;;;;4.22;2.60;;;;;;;14.32;66.59;99635.75;409613;23;17601;-72
2023/05/20 00:35:10;;;;;;;3.70;2.50;;;;;;;14.32;66.58;99639.19;411106;23;17273;-72
2023/05/20 00:35:22;;;;;;;4.00;2.60;;;;;;;14.33;66.59;99637.44;414927;23;5142;-72
2023/05/20 00:35:35;;;;;;;3.67;2.75;;;;;;;14.33;66.53;99638.28;407827;23;16703;-72
2023/05/20 00:35:47;;;;;;;3.65;2.70;;;;;;;14.33;66.55;99633.06;412709;23;5545;-72
2023/05/20 00:35:59;;;;;;;3.20;2.50;;;;;;;14.32;66.60;99639.19;409607;23;18350;-72
2023/05/20 00:36:11;;;;;;;2.92;2.50;;;;;;;14.30;66.61;99630.56;412822;23;5209;-72
2023/05/20 00:36:23;;;;;;;3.60;2.50;;;;;;;14.32;66.56;99639.19;410044;23;9849;-72
2023/05/20 00:36:36;;;;;;;3.42;2.35;;;;;;;14.30;66.49;99635.81;412212;23;4597;-72
2023/05/20 00:36:48;;;;;;;3.20;2.33;;;;;;;14.30;66.57;99635.81;408921;23;18247;-72
2023/05/20 00:37:00;;;;;;;2.67;2.25;;;;;;;14.28;66.63;99632.41;410132;23;4997;-72
2023/05/20 00:37:12;;;;;;;2.58;2.20;;;;;;;14.29;66.46;99634.13;412354;23;4664;-72
2023/05/20 00:37:25;;;;;;;2.88;2.35;;;;;;;14.27;66.61;99630.75;409018;23;18818;-72
2023/05/20 00:37:37;;;;;;;3.20;2.42;;;;;;;14.29;66.62;99628.91;411268;23;4468;-72
2023/05/20 00:37:49;;;;;;;3.08;2.50;;;;;;;14.28;66.68;99635.03;409113;23;18061;-72
2023/05/20 00:38:01;;;;;;;3.20;2.60;;;;;;;14.26;66.64;99633.41;411847;23;5139;-72
2023/05/20 00:38:13;;;;;;;3.78;2.72;;;;;;;14.25;66.45;99637.81;407115;23;9512;-72
2023/05/20 00:38:25;;;;;;;3.78;2.70;;;;;;;14.25;66.51;99637.81;412942;23;5139;-72
2023/05/20 00:38:37;;;;;;;3.65;2.58;;;;;;;14.24;66.48;99637.88;412964;23;5219;-71
2023/05/20 00:38:49;;;;;;;3.92;2.80;;;;;;;14.22;66.78;99637.94;408556;23;18392;-72
2023/05/20 00:39:01;;;;;;;4.68;2.80;;;;;;;14.22;66.75;99635.31;412456;23;5246;-72
2023/05/20 00:39:13;;;;;;;4.22;2.70;;;;;;;14.22;66.60;99637.09;409383;23;9898;-72
2023/05/20 00:39:25;;;;;;;3.17;2.38;;;;;;;14.21;66.71;99633.66;413118;23;4481;-72
2023/05/20 00:39:37;;;;;;;3.83;2.42;;;;;;;14.21;66.71;99636.25;412696;23;5764;-72
2023/05/20 00:39:50;;;;;;;3.67;2.45;;;;;;;14.21;66.85;99632.81;406686;23;17170;-72
2023/05/20 00:40:02;;;;;;;3.50;2.60;;;;;;;14.19;66.71;99627.66;414543;23;4685;-72
2023/05/20 00:40:14;;;;;;;3.38;2.60;;;;;;;14.19;66.76;99638.09;412189;23;18967;-72
2023/05/20 00:40:26;;;;;;;4.90;2.50;;;;;;;14.18;66.92;99639.00;413403;23;5074;-72
2023/05/20 00:40:38;;;;;;;4.68;2.50;;;;;;;14.19;67.05;99638.09;409304;23;9715;-72
2023/05/20 00:40:50;;;;;;;4.22;2.53;;;;;;;14.19;66.94;99633.72;413234;23;4513;-72
2023/05/20 00:41:03;;;;;;;4.38;2.60;;;;;;;14.19;67.18;99638.09;410352;23;4671;-72
2023/05/20 00:41:14;;;;;;;4.18;2.67;;;;;;;14.20;67.18;99634.56;412094;23;17310;-72
2023/05/20 00:41:27;;;;;;;4.60;2.90;;;;;;;14.19;67.14;99628.50;413681;23;5156;-72
2023/05/20 00:41:39;;;;;;;4.50;2.80;;;;;;;14.19;67.08;99633.72;409230;23;17978;-71
2023/05/20 00:41:51;;;;;;;4.43;2.70;;;;;;;14.18;67.14;99632.03;413040;23;4830;-71
2023/05/20 00:42:03;;;;;;;3.40;2.50;;;;;;;14.19;66.95;99627.66;409921;23;18217;-71
2023/05/20 00:42:20;;;;;;;3.60;2.53;;;;;;;14.18;66.82;99631.16;413250;23;4454;-71
2023/05/20 00:42:32;;;;;;;3.38;2.58;;;;;;;14.17;66.56;99634.72;409997;23;17782;-72
2023/05/20 00:42:44;;;;;;;2.72;2.42;;;;;;;14.19;66.66;99627.66;409157;23;19286;-72
2023/05/20 00:42:56;;;;;;;3.95;2.35;;;;;;;14.18;66.66;99632.03;412325;23;4738;-72
2023/05/20 00:43:08;;;;;;;4.57;2.40;;;;;;;14.18;66.91;99633.78;409565;23;16255;-72
2023/05/20 00:43:21;;;;;;;4.10;2.50;;;;;;;14.19;66.55;99632.88;413300;23;4406;-72
2023/05/20 00:43:33;;;;;;;3.17;2.40;;;;;;;14.20;66.50;99634.56;410018;23;16186;-72
2023/05/20 00:43:45;;;;;;;3.35;2.40;;;;;;;14.19;66.54;99628.50;412662;23;4507;-72
2023/05/20 00:43:57;;;;;;;3.83;2.50;;;;;;;14.18;66.51;99628.56;413451;23;4656;-72
2023/05/20 00:44:09;;;;;;;4.15;2.60;;;;;;;14.20;66.35;99637.16;409093;23;17906;-72
2023/05/20 00:44:23;;;;;;;3.40;2.53;;;;;;;14.19;66.57;99627.66;413089;23;4592;-72
2023/05/20 00:44:35;;;;;;;2.80;2.40;;;;;;;14.20;66.59;99634.56;409334;23;18042;-71
2023/05/20 00:44:47;;;;;;;2.90;2.50;;;;;;;14.18;66.63;99626.81;409971;23;5373;-71
2023/05/20 00:44:59;;;;;;;3.35;2.70;;;;;;;14.19;66.33;99633.72;407053;23;18327;-72
2023/05/20 00:45:11;;;;;;;4.38;2.88;;;;;;;14.20;66.21;99634.56;410912;23;4545;-71
2023/05/20 00:45:24;;;;;;;4.43;2.70;;;;;;;14.20;66.38;99631.94;406958;23;16237;-72
2023/05/20 00:45:37;;;;;;;4.80;2.47;;;;;;;14.20;66.10;99631.94;410231;23;4616;-72
2023/05/20 00:45:51;;;;;;;3.67;2.47;;;;;;;14.20;66.08;99629.31;407499;23;17571;-72
2023/05/20 00:46:03;;;;;;;3.63;2.50;;;;;;;14.21;66.06;99625.81;408859;23;18262;-72
2023/05/20 00:46:15;;;;;;;3.80;2.60;;;;;;;14.21;66.18;99623.19;412541;23;4596;-74
2023/05/20 00:46:28;;;;;;;3.00;2.40;;;;;;;14.22;65.96;99632.72;410521;23;4541;-72
2023/05/20 00:46:40;;;;;;;3.55;2.60;;;;;;;14.22;65.97;99627.47;410138;23;18320;-72
2023/05/20 00:46:53;;;;;;;3.53;2.63;;;;;;;14.22;65.80;99624.88;411008;23;4496;-72
2023/05/20 00:47:05;;;;;;;4.25;3.00;;;;;;;14.22;65.73;99627.47;408914;23;18070;-72
2023/05/20 00:47:19;;;;;;;3.58;2.80;;;;;;;14.23;65.98;99623.97;412893;23;5408;-71
2023/05/20 00:47:35;;;;;;;2.95;2.60;;;;;;;14.24;65.79;99625.66;409852;23;18279;-72
2023/05/20 00:47:47;;;;;;;3.42;2.40;;;;;;;14.24;65.69;99623.03;412829;23;17442;-71
2023/05/20 00:48:02;;;;;;;4.68;2.60;;;;;;;14.24;65.78;99620.41;409355;23;18287;-72
2023/05/20 00:48:15;;;;;;;4.93;2.53;;;;;;;14.25;65.95;99627.34;409518;23;17838;-71
2023/05/20 00:48:36;;;;;;;5.13;2.38;;;;;;;14.25;65.89;99629.97;413327;23;4676;-72
2023/05/20 00:48:49;;;;;;;3.50;2.50;;;;;;;14.24;65.97;99623.03;409351;23;18343;-72
2023/05/20 00:49:01;;;;;;;2.90;2.60;;;;;;;14.23;65.92;99623.97;413514;23;6109;-72
2023/05/20 00:49:14;;;;;;;2.80;2.50;;;;;;;14.23;66.29;99623.97;409157;23;19455;-72
2023/05/20 00:49:26;;;;;;;3.33;2.40;;;;;;;14.22;66.32;99621.41;413113;23;4428;-72
2023/05/20 00:49:38;;;;;;;4.32;2.38;;;;;;;14.21;66.06;99625.81;409835;23;4638;-72
2023/05/20 00:49:50;;;;;;;4.35;2.42;;;;;;;14.22;66.04;99626.66;413334;23;4445;-72
2023/05/20 00:50:03;;;;;;;4.80;2.60;;;;;;;14.22;66.19;99622.25;413243;23;5280;-72
2023/05/20 00:50:16;;;;;;;5.23;2.70;;;;;;;14.22;66.42;99622.25;409574;23;18142;-72
2023/05/20 00:50:31;;;;;;;4.95;2.67;;;;;;;14.23;66.32;99623.13;409123;23;17816;-72
2023/05/20 00:50:43;;;;;;;4.10;2.60;;;;;;;14.23;66.27;99618.75;409281;23;9953;-73
2023/05/20 00:50:55;;;;;;;4.50;2.55;;;;;;;14.23;66.21;99626.59;413387;23;4493;-72
2023/05/20 00:51:08;;;;;;;4.93;2.35;;;;;;;14.22;66.27;99624.88;413074;23;4457;-72
2023/05/20 00:51:20;;;;;;;4.70;2.33;;;;;;;14.24;65.91;99619.56;408619;23;17937;-72
2023/05/20 00:51:32;;;;;;;3.15;2.40;;;;;;;14.23;66.05;99629.19;412862;23;4505;-71
2023/05/20 00:51:45;;;;;;;3.28;2.50;;;;;;;14.23;66.01;99621.34;408903;23;18287;-72
2023/05/20 00:51:57;;;;;;;3.92;2.50;;;;;;;14.23;65.99;99618.75;410750;23;4621;-71
2023/05/20 00:52:10;;;;;;;3.58;2.40;;;;;;;14.24;65.93;99628.25;407166;23;18141;-72
2023/05/20 00:52:23;;;;;;;3.47;2.47;;;;;;;14.24;65.95;99623.03;409749;23;5585;-72
2023/05/20 00:52:36;;;;;;;3.95;2.50;;;;;;;14.24;65.93;99620.41;407033;23;19091;-72
2023/05/20 00:52:50;;;;;;;4.13;2.42;;;;;;;14.25;65.68;99627.34;410178;23;4443;-71
2023/05/20 00:53:02;;;;;;;3.78;2.53;;;;;;;14.25;65.72;99621.28;408389;23;17015;-72
2023/05/20 00:53:17;;;;;;;3.45;2.60;;;;;;;14.24;65.72;99620.41;406967;23;18030;-72
2023/05/20 00:53:31;;;;;;;3.92;2.65;;;;;;;14.24;65.80;99623.03;408843;23;17793;-72
2023/05/20 00:53:43;;;;;;;3.85;2.70;;;;;;;14.24;66.03;99623.03;412241;23;11231;-71
2023/05/20 00:53:56;;;;;;;4.22;2.70;;;;;;;14.23;66.29;99623.97;409561;23;17292;-72
2023/05/20 00:54:09;;;;;;;4.22;2.58;;;;;;;14.23;66.35;99621.34;410378;23;9467;-72
2023/05/20 00:54:21;;;;;;;3.58;2.60;;;;;;;14.24;66.22;99617.81;413468;23;18353;-72
2023/05/20 00:54:33;;;;;;;2.97;2.50;;;;;;;14.25;66.33;99611.66;410884;23;9311;-72
2023/05/20 00:54:46;;;;;;;3.15;2.50;;;;;;;14.26;66.25;99623.81;415435;23;4440;-72
2023/05/20 00:55:00;;;;;;;3.53;2.50;;;;;;;14.27;66.24;99625.50;409224;23;18101;-72
2023/05/20 00:55:13;;;;;;;3.15;2.50;;;;;;;14.26;65.95;99618.56;412531;23;4547;-72
2023/05/20 00:55:25;;;;;;;3.58;2.53;;;;;;;14.27;66.03;99615.06;408677;23;19403;-72
2023/05/20 00:55:37;;;;;;;4.07;2.53;;;;;;;14.28;65.97;99621.13;412755;23;5109;-72
2023/05/20 00:55:49;;;;;;;3.95;2.60;;;;;;;14.27;66.00;99620.28;409891;23;4545;-72
2023/05/20 00:56:03;;;;;;;3.63;2.50;;;;;;;14.28;65.95;99621.97;412726;23;4635;-72
2023/05/20 00:56:15;;;;;;;3.47;2.58;;;;;;;14.29;66.06;99620.22;408945;23;17807;-72
2023/05/20 00:56:27;;;;;;;3.63;2.58;;;;;;;14.29;65.90;99620.22;413309;23;5225;-72
2023/05/20 00:56:39;;;;;;;4.45;2.83;;;;;;;14.27;65.96;99622.91;407168;23;17832;-72
2023/05/20 00:56:52;;;;;;;4.95;3.08;;;;;;;14.28;66.01;99619.34;412228;23;4783;-72
2023/05/20 00:57:05;;;;;;;4.00;3.00;;;;;;;14.27;66.38;99620.28;409213;23;18298;-73
2023/05/20 00:57:19;;;;;;;2.95;2.65;;;;;;;14.28;66.15;99618.50;412413;23;4566;-72
2023/05/20 00:57:31;;;;;;;2.97;2.60;;;;;;;14.29;66.50;99618.44;406983;23;18456;-72
2023/05/20 00:57:44;;;;;;;3.03;2.47;;;;;;;14.30;66.08;99621.88;411440;23;9784;-72
2023/05/20 00:57:56;;;;;;;4.78;2.53;;;;;;;14.30;66.00;99617.50;408531;23;16227;-72
2023/05/20 00:58:08;;;;;;;4.82;2.53;;;;;;;14.31;66.22;99621.81;409319;23;9657;-72
2023/05/20 00:58:20;;;;;;;2.72;2.40;;;;;;;14.32;65.97;99622.66;412545;23;5183;-72
2023/05/20 00:58:35;;;;;;;2.95;2.47;;;;;;;14.33;66.52;99619.97;412925;23;4754;-72
2023/05/20 00:58:48;;;;;;;5.00;2.60;;;;;;;14.33;66.30;99621.75;409581;23;18078;-72
2023/05/20 00:59:01;;;;;;;5.47;2.80;;;;;;;14.33;66.28;99629.59;409792;23;16598;-72
2023/05/20 00:59:13;;;;;;;5.40;2.80;;;;;;;14.32;66.41;99623.50;412949;23;4544;-72
2023/05/20 00:59:25;;;;;;;3.30;2.55;;;;;;;14.32;66.18;99620.88;408740;23;18017;-72
2023/05/20 00:59:38;;;;;;;5.65;2.53;;;;;;;14.34;66.05;99619.03;412469;23;4764;-72
2023/05/20 00:59:53;;;;;;;7.35;2.60;;;;;;;14.34;66.10;99621.66;409808;23;18779;-72
2023/05/20 01:00:07;;;;;;;5.70;2.80;;;;;;;14.36;65.99;99619.81;409959;23;18008;-73